createdAt,value
2022-07-28T00:00:44.463Z,1.00
2022-07-28T00:03:11.299Z,1.42
2022-07-28T00:05:38.548Z,1.00
2022-07-28T00:08:05.553Z,1.20
2022-07-28T00:10:32.366Z,1.10
2022-07-28T00:12:59.928Z,1.00
2022-07-28T00:15:27.416Z,1.27
2022-07-28T00:17:54.101Z,0.98
2022-07-28T00:20:21.288Z,1.05
2022-07-28T00:22:48.060Z,0.77
2022-07-28T00:25:15.824Z,1.00
2022-07-28T00:27:42.464Z,1.20
2022-07-28T00:30:10.039Z,0.93
2022-07-28T00:32:37.658Z,1.17
2022-07-28T00:35:05.298Z,1.52
2022-07-28T00:37:34.871Z,1.02
2022-07-28T00:40:01.680Z,1.38
2022-07-28T00:42:28.326Z,1.50
2022-07-28T00:44:55.001Z,1.20
2022-07-28T00:47:21.581Z,1.20
2022-07-28T00:49:48.635Z,1.30
2022-07-28T00:52:18.199Z,1.10
2022-07-28T00:54:44.927Z,1.10
2022-07-28T00:57:11.570Z,1.00
2022-07-28T00:59:38.322Z,1.08
2022-07-28T01:02:05.426Z,0.80
2022-07-28T01:04:32.379Z,1.13
2022-07-28T01:07:20.939Z,1.05
2022-07-28T01:10:06.101Z,1.02
2022-07-28T01:13:11.495Z,1.05
2022-07-28T01:15:43.671Z,1.20
2022-07-28T01:18:21.127Z,1.10
2022-07-28T01:20:52.917Z,1.23
2022-07-28T01:23:31.496Z,0.80
2022-07-28T01:26:14.117Z,1.42
2022-07-28T01:29:05.650Z,1.15
2022-07-28T01:31:43.326Z,1.02
2022-07-28T01:34:16.381Z,1.42
2022-07-28T01:36:55.828Z,1.00
2022-07-28T01:39:29.092Z,0.95
2022-07-28T01:41:58.164Z,1.10
2022-07-28T01:44:27.661Z,0.90
2022-07-28T01:46:57.666Z,1.00
2022-07-28T01:49:27.829Z,1.00
2022-07-28T01:51:56.471Z,1.23
2022-07-28T01:54:24.910Z,0.93
2022-07-28T01:56:53.692Z,0.90
2022-07-28T01:59:22.541Z,1.13
2022-07-28T02:01:51.745Z,0.93
2022-07-28T02:04:21.320Z,1.40
2022-07-28T02:06:49.910Z,1.60
2022-07-28T02:09:18.757Z,1.30
2022-07-28T02:11:47.144Z,1.73
2022-07-28T02:14:18.109Z,1.30
2022-07-28T02:16:48.862Z,1.27
2022-07-28T02:19:18.317Z,1.60
2022-07-28T02:21:48.747Z,1.27
2022-07-28T02:24:19.096Z,1.40
2022-07-28T02:26:53.999Z,1.40
2022-07-28T02:29:49.174Z,1.20
2022-07-28T02:32:40.971Z,1.02
2022-07-28T02:35:32.934Z,1.00
2022-07-28T02:38:10.388Z,1.30
2022-07-28T02:40:40.030Z,1.50
2022-07-28T02:43:16.035Z,1.10
2022-07-28T02:45:46.128Z,1.17
2022-07-28T02:48:17.368Z,1.10
2022-07-28T02:50:46.469Z,1.30
2022-07-28T02:53:16.315Z,1.35
2022-07-28T02:55:46.518Z,1.20
2022-07-28T02:58:14.879Z,1.20
2022-07-28T03:00:42.523Z,1.35
2022-07-28T03:03:10.707Z,1.35
2022-07-28T03:05:39.950Z,1.20
2022-07-28T03:08:06.837Z,1.45
2022-07-28T03:10:34.837Z,1.30
2022-07-28T03:13:03.629Z,1.10
2022-07-28T03:15:31.205Z,1.27
2022-07-28T03:17:58.639Z,1.27
2022-07-28T03:20:25.346Z,1.10
2022-07-28T03:22:52.000Z,1.17
2022-07-28T03:25:36.888Z,0.93
2022-07-28T03:28:07.772Z,1.00
2022-07-28T03:30:41.600Z,1.35
2022-07-28T03:33:08.487Z,1.15
2022-07-28T03:35:37.573Z,0.93
2022-07-28T03:38:26.332Z,1.10
2022-07-28T03:40:55.772Z,1.10
2022-07-28T03:43:26.171Z,1.20
2022-07-28T03:45:52.842Z,1.38
2022-07-28T03:48:23.356Z,1.10
2022-07-28T03:50:50.143Z,1.00
2022-07-28T03:53:22.797Z,1.20
2022-07-28T03:55:51.060Z,1.30
2022-07-28T03:58:26.273Z,1.10
2022-07-28T04:00:56.116Z,1.50
2022-07-28T04:03:43.037Z,1.60
2022-07-28T04:06:09.582Z,1.17
2022-07-28T04:08:36.285Z,1.35
2022-07-28T04:11:02.931Z,1.33
2022-07-28T04:13:31.982Z,1.20
2022-07-28T04:15:59.430Z,1.33
2022-07-28T04:18:26.125Z,1.10
2022-07-28T04:20:52.851Z,1.10
2022-07-28T04:23:20.898Z,1.10
2022-07-28T04:25:47.861Z,1.40
2022-07-28T04:28:15.770Z,1.08
2022-07-28T04:30:44.269Z,1.60
2022-07-28T04:33:12.191Z,1.00
2022-07-28T04:35:38.877Z,1.13
2022-07-28T04:38:05.873Z,1.08
2022-07-28T04:40:34.385Z,1.00
2022-07-28T04:43:01.438Z,1.00
2022-07-28T04:45:29.143Z,1.30
2022-07-28T04:47:55.809Z,0.80
2022-07-28T04:50:22.467Z,1.10
2022-07-28T04:52:50.110Z,1.13
2022-07-28T04:55:17.947Z,1.10
2022-07-28T04:57:45.657Z,1.02
2022-07-28T05:00:14.281Z,0.90
2022-07-28T05:02:42.447Z,1.52
2022-07-28T05:05:10.041Z,1.30
2022-07-28T05:07:38.265Z,1.20
2022-07-28T05:10:06.449Z,1.38
2022-07-28T05:12:33.245Z,1.15
2022-07-28T05:15:00.442Z,0.95
2022-07-28T05:17:27.314Z,1.20
2022-07-28T05:19:54.190Z,1.10
2022-07-28T05:22:21.032Z,1.20
2022-07-28T05:24:47.733Z,1.10
2022-07-28T05:27:14.460Z,1.10
2022-07-28T05:29:47.004Z,1.27
2022-07-28T05:32:17.199Z,1.33
2022-07-28T05:34:47.235Z,1.00
2022-07-28T05:37:13.833Z,1.33
2022-07-28T05:39:40.534Z,0.90
2022-07-28T05:42:07.424Z,0.98
2022-07-28T05:44:38.131Z,1.48
2022-07-28T05:47:06.031Z,1.27
2022-07-28T05:49:33.066Z,0.95
2022-07-28T05:51:59.733Z,1.10
2022-07-28T05:54:26.415Z,1.20
2022-07-28T05:56:53.102Z,0.85
2022-07-28T05:59:19.791Z,0.98
2022-07-28T06:01:46.658Z,1.20
2022-07-28T06:04:29.350Z,0.95
2022-07-28T06:06:56.646Z,1.00
2022-07-28T06:09:26.457Z,0.80
2022-07-28T06:11:53.214Z,0.75
2022-07-28T06:14:20.054Z,0.88
2022-07-28T06:16:51.562Z,1.00
2022-07-28T06:19:19.388Z,1.10
2022-07-28T06:21:47.735Z,0.80
2022-07-28T06:24:14.897Z,0.68
2022-07-28T06:26:44.573Z,0.70
2022-07-28T06:29:11.927Z,1.05
2022-07-28T06:31:39.332Z,0.80
2022-07-28T06:34:06.383Z,1.48
2022-07-28T06:36:33.127Z,0.63
2022-07-28T06:38:59.767Z,0.60
2022-07-28T06:41:26.485Z,0.90
2022-07-28T06:43:53.201Z,0.65
2022-07-28T06:46:20.213Z,0.68
2022-07-28T06:48:47.308Z,0.90
2022-07-28T06:51:18.849Z,0.98
2022-07-28T06:53:48.122Z,0.77
2022-07-28T06:56:15.855Z,0.70
2022-07-28T06:58:46.504Z,0.82
2022-07-28T07:01:15.244Z,1.08
2022-07-28T07:03:42.809Z,1.15
2022-07-28T07:06:10.745Z,0.98
2022-07-28T07:08:37.475Z,1.15
2022-07-28T07:11:04.100Z,0.75
2022-07-28T07:13:30.857Z,0.85
2022-07-28T07:15:57.480Z,0.90
2022-07-28T07:18:24.203Z,0.90
2022-07-28T07:20:50.845Z,0.57
2022-07-28T07:23:17.525Z,0.98
2022-07-28T07:25:44.172Z,0.73
2022-07-28T07:28:10.784Z,0.82
2022-07-28T07:30:37.406Z,0.80
2022-07-28T07:33:07.074Z,1.20
2022-07-28T07:35:37.839Z,0.90
2022-07-28T07:38:04.658Z,0.80
2022-07-28T07:40:31.723Z,0.65
2022-07-28T07:42:58.351Z,0.65
2022-07-28T07:45:24.968Z,0.90
2022-07-28T07:47:51.582Z,0.52
2022-07-28T07:50:18.329Z,0.70
2022-07-28T07:52:45.031Z,0.95
2022-07-28T07:55:11.817Z,0.65
2022-07-28T07:57:38.444Z,0.80
2022-07-28T08:00:05.736Z,0.68
2022-07-28T08:02:32.485Z,0.55
2022-07-28T08:05:00.549Z,0.40
2022-07-28T08:07:27.353Z,0.50
2022-07-28T08:09:54.402Z,0.68
2022-07-28T08:12:25.213Z,1.02
2022-07-28T08:14:53.124Z,0.47
2022-07-28T08:17:23.675Z,0.60
2022-07-28T08:19:52.517Z,0.68
2022-07-28T08:22:19.277Z,0.70
2022-07-28T08:24:46.013Z,0.82
2022-07-28T08:27:12.925Z,0.80
2022-07-28T08:29:39.661Z,0.60
2022-07-28T08:32:06.812Z,0.60
2022-07-28T08:34:34.802Z,0.60
2022-07-28T08:37:16.318Z,0.50
2022-07-28T08:39:42.930Z,0.70
2022-07-28T08:42:15.500Z,0.60
2022-07-28T08:45:03.646Z,0.60
2022-07-28T08:48:07.732Z,0.73
2022-07-28T08:50:24.536Z,0.68
2022-07-28T08:52:52.918Z,0.80
2022-07-28T08:55:31.804Z,0.50
2022-07-28T08:58:00.255Z,0.50
2022-07-28T09:00:27.734Z,0.50
2022-07-28T09:02:55.345Z,0.50
2022-07-28T09:05:23.155Z,0.60
2022-07-28T09:07:54.742Z,0.77
2022-07-28T09:10:22.029Z,0.65
2022-07-28T09:12:48.766Z,0.80
2022-07-28T09:15:15.813Z,0.60
2022-07-28T09:17:43.105Z,0.65
2022-07-28T09:20:11.658Z,0.80
2022-07-28T09:22:59.137Z,0.63
2022-07-28T09:25:26.802Z,0.60
2022-07-28T09:27:54.638Z,0.55
2022-07-28T09:30:36.366Z,0.65
2022-07-28T09:33:42.474Z,0.77
2022-07-28T09:36:15.680Z,0.60
2022-07-28T09:38:42.426Z,0.50
2022-07-28T09:41:09.009Z,0.52
2022-07-28T09:43:40.635Z,0.65
2022-07-28T09:46:09.749Z,0.60
2022-07-28T09:48:51.146Z,0.70
2022-07-28T09:51:23.569Z,0.75
2022-07-28T09:53:51.389Z,0.60
2022-07-28T09:56:18.744Z,0.70
2022-07-28T09:58:56.781Z,0.60
2022-07-28T10:01:24.384Z,0.63
2022-07-28T10:03:55.828Z,0.73
2022-07-28T10:06:28.279Z,0.70
2022-07-28T10:08:59.791Z,0.60
2022-07-28T10:11:28.025Z,0.68
2022-07-28T10:14:05.659Z,0.70
2022-07-28T10:16:41.768Z,0.50
2022-07-28T10:19:08.525Z,0.75
2022-07-28T10:21:46.555Z,0.70
2022-07-28T10:24:20.909Z,0.60
2022-07-28T10:26:48.880Z,0.50
2022-07-28T10:29:17.458Z,0.60
2022-07-28T10:31:53.601Z,0.80
2022-07-28T10:34:34.317Z,0.63
2022-07-28T10:37:08.294Z,0.43
2022-07-28T10:39:44.164Z,0.50
2022-07-28T10:42:12.475Z,0.60
2022-07-28T10:44:41.449Z,0.70
2022-07-28T10:47:10.053Z,0.73
2022-07-28T10:49:45.760Z,0.60
2022-07-28T10:52:37.710Z,0.70
2022-07-28T10:55:40.781Z,0.57
2022-07-28T10:58:17.229Z,0.50
2022-07-28T11:00:59.895Z,0.80
2022-07-28T11:03:47.455Z,0.70
2022-07-28T11:06:36.793Z,0.60
2022-07-28T11:09:15.379Z,0.50
2022-07-28T11:11:53.666Z,0.50
2022-07-28T11:14:24.354Z,0.52
2022-07-28T11:17:15.448Z,0.47
2022-07-28T11:20:16.867Z,0.52
2022-07-28T11:22:33.625Z,0.65
2022-07-28T11:25:20.364Z,0.60
2022-07-28T11:27:50.224Z,0.80
2022-07-28T11:30:25.759Z,0.47
2022-07-28T11:36:07.686Z,0.50
2022-07-28T11:38:41.693Z,0.60
2022-07-28T11:41:30.936Z,0.60
2022-07-28T11:44:23.671Z,0.50
2022-07-28T11:46:54.031Z,0.52
2022-07-28T11:49:23.317Z,0.60
2022-07-28T11:52:12.108Z,0.70
2022-07-28T11:54:40.745Z,0.63
2022-07-28T11:57:12.930Z,0.60
2022-07-28T11:59:47.077Z,0.50
2022-07-28T12:02:26.179Z,0.75
2022-07-28T12:04:58.367Z,0.52
2022-07-28T12:07:52.288Z,0.68
2022-07-28T12:10:54.675Z,0.60
2022-07-28T12:13:24.593Z,0.60
2022-07-28T12:15:51.285Z,0.60
2022-07-28T12:18:17.993Z,0.60
2022-07-28T12:20:48.541Z,0.40
2022-07-28T12:23:15.344Z,0.60
2022-07-28T12:25:44.992Z,0.50
2022-07-28T12:28:25.469Z,0.45
2022-07-28T12:30:53.889Z,0.50
2022-07-28T12:33:28.980Z,0.60
2022-07-28T12:35:59.090Z,0.60
2022-07-28T12:38:27.728Z,0.50
2022-07-28T12:40:54.489Z,0.40
2022-07-28T12:43:29.195Z,0.60
2022-07-28T12:45:56.065Z,0.57
2022-07-28T12:48:22.891Z,0.75
2022-07-28T12:50:50.210Z,0.85
2022-07-28T12:53:21.250Z,0.68
2022-07-28T12:55:48.152Z,0.60
2022-07-28T12:58:26.680Z,0.55
2022-07-28T13:00:55.360Z,0.55
2022-07-28T13:03:25.212Z,0.70
2022-07-28T13:06:05.157Z,0.80
2022-07-28T13:08:37.800Z,0.60
2022-07-28T13:11:41.939Z,0.60
2022-07-28T13:14:00.421Z,0.50
2022-07-28T13:16:29.730Z,0.60
2022-07-28T13:19:03.942Z,0.70
2022-07-28T13:21:38.584Z,0.50
2022-07-28T13:24:05.554Z,0.70
2022-07-28T13:26:32.131Z,0.75
2022-07-28T13:29:02.675Z,0.60
2022-07-28T13:31:39.655Z,0.57
2022-07-28T13:34:08.779Z,0.65
2022-07-28T13:36:36.757Z,0.63
2022-07-28T13:42:07.715Z,0.65
2022-07-28T13:44:40.983Z,0.60
2022-07-28T13:47:21.350Z,0.60
2022-07-28T13:49:49.188Z,0.70
2022-07-28T13:52:33.168Z,0.75
2022-07-28T13:55:09.339Z,0.80
2022-07-28T13:57:36.579Z,0.57
2022-07-28T14:00:06.961Z,0.65
2022-07-28T14:02:35.282Z,0.70
2022-07-28T14:05:08.541Z,0.73
2022-07-28T14:08:00.080Z,0.70
2022-07-28T14:10:32.352Z,0.68
2022-07-28T14:12:59.404Z,0.70
2022-07-28T14:15:26.152Z,0.70
2022-07-28T14:17:52.938Z,0.60
2022-07-28T14:20:39.237Z,0.60
2022-07-28T14:23:06.342Z,0.70
2022-07-28T14:25:48.237Z,0.50
2022-07-28T14:28:15.956Z,0.90
2022-07-28T14:30:42.684Z,0.70
2022-07-28T14:33:09.381Z,0.70
2022-07-28T14:35:36.192Z,0.70
2022-07-28T14:38:49.707Z,0.77
2022-07-28T14:40:52.015Z,0.82
2022-07-28T14:43:18.826Z,0.80
2022-07-28T14:45:51.411Z,0.68
2022-07-28T14:48:32.537Z,0.50
2022-07-28T14:51:01.273Z,0.70
2022-07-28T14:53:28.351Z,0.63
2022-07-28T14:55:55.066Z,0.60
2022-07-28T14:58:21.810Z,0.70
2022-07-28T15:00:48.364Z,0.82
2022-07-28T15:03:15.112Z,1.00
2022-07-28T15:05:41.800Z,0.75
2022-07-28T15:08:08.496Z,0.80
2022-07-28T15:10:35.082Z,0.70
2022-07-28T15:13:01.738Z,0.52
2022-07-28T15:15:28.456Z,0.70
2022-07-28T15:17:58.724Z,0.50
2022-07-28T15:20:25.414Z,0.95
2022-07-28T15:22:52.054Z,0.90
2022-07-28T15:25:19.008Z,0.80
2022-07-28T15:27:45.875Z,0.68
2022-07-28T15:30:12.915Z,0.50
2022-07-28T15:32:54.220Z,0.50
2022-07-28T15:35:23.804Z,0.60
2022-07-28T15:37:50.406Z,0.80
2022-07-28T15:40:17.000Z,0.60
2022-07-28T15:42:43.654Z,0.80
2022-07-28T15:45:10.820Z,0.60
2022-07-28T15:47:37.389Z,0.60
2022-07-28T15:50:04.372Z,0.77
2022-07-28T15:52:30.932Z,0.68
2022-07-28T15:54:57.520Z,0.60
2022-07-28T15:57:24.108Z,0.70
2022-07-28T15:59:51.017Z,0.88
2022-07-28T16:02:19.093Z,0.60
2022-07-28T16:04:47.206Z,0.70
2022-07-28T16:07:22.308Z,0.75
2022-07-28T16:09:55.315Z,0.65
2022-07-28T16:12:24.746Z,0.80
2022-07-28T16:14:55.143Z,0.70
2022-07-28T16:17:22.894Z,0.55
2022-07-28T16:19:51.148Z,0.40
2022-07-28T16:22:19.219Z,0.80
2022-07-28T16:24:46.241Z,0.75
2022-07-28T16:27:12.991Z,0.70
2022-07-28T16:29:39.774Z,0.52
2022-07-28T16:32:06.489Z,0.52
2022-07-28T16:34:33.195Z,0.60
2022-07-28T16:36:59.766Z,0.52
2022-07-28T16:39:26.342Z,0.65
2022-07-28T16:41:53.118Z,0.60
2022-07-28T16:44:20.474Z,0.60
2022-07-28T16:46:47.296Z,0.60
2022-07-28T16:49:16.120Z,0.40
2022-07-28T16:51:42.927Z,0.40
2022-07-28T16:54:09.530Z,0.47
2022-07-28T16:56:36.314Z,0.50
2022-07-28T16:59:03.651Z,0.50
2022-07-28T17:01:30.798Z,0.57
2022-07-28T17:03:57.446Z,0.60
2022-07-28T17:06:24.490Z,0.60
2022-07-28T17:08:51.498Z,0.50
2022-07-28T17:11:18.079Z,0.50
2022-07-28T17:13:45.564Z,0.50
2022-07-28T17:16:12.889Z,0.55
2022-07-28T17:18:39.684Z,0.52
2022-07-28T17:21:06.575Z,0.60
2022-07-28T17:23:34.666Z,0.73
2022-07-28T17:26:58.558Z,0.60
2022-07-28T17:28:51.762Z,0.60
2022-07-28T17:31:18.517Z,0.60
2022-07-28T17:33:45.132Z,0.60
2022-07-28T17:36:11.734Z,0.68
2022-07-28T17:38:38.316Z,0.40
2022-07-28T17:41:04.993Z,0.80
2022-07-28T17:43:32.372Z,0.85
2022-07-28T17:45:59.022Z,0.60
2022-07-28T17:48:28.477Z,0.85
2022-07-28T17:50:55.071Z,1.15
2022-07-28T17:53:23.480Z,1.15
2022-07-28T17:56:00.569Z,0.82
2022-07-28T17:58:29.547Z,0.63
2022-07-28T18:01:09.333Z,0.70
2022-07-28T18:03:59.424Z,0.60
2022-07-28T18:06:28.254Z,0.70
2022-07-28T18:08:54.840Z,0.63
2022-07-28T18:11:21.432Z,0.50
2022-07-28T18:14:03.919Z,0.57
2022-07-28T18:16:33.912Z,0.70
2022-07-28T18:19:02.087Z,0.70
2022-07-28T18:21:28.701Z,0.45
2022-07-28T18:23:55.299Z,0.70
2022-07-28T18:26:22.211Z,0.85
2022-07-28T18:28:49.144Z,0.63
2022-07-28T18:31:15.916Z,0.80
2022-07-28T18:33:42.790Z,0.60
2022-07-28T18:36:10.021Z,0.70
2022-07-28T18:38:36.671Z,0.70
2022-07-28T18:41:03.228Z,0.77
2022-07-28T18:43:29.861Z,0.70
2022-07-28T18:45:56.553Z,0.70
2022-07-28T18:48:25.314Z,0.60
2022-07-28T18:50:52.131Z,0.68
2022-07-28T18:53:18.901Z,0.93
2022-07-28T18:55:45.648Z,0.90
2022-07-28T18:58:12.260Z,0.80
2022-07-28T19:00:38.953Z,0.77
2022-07-28T19:03:05.975Z,0.85
2022-07-28T19:05:36.440Z,0.80
2022-07-28T19:08:04.497Z,0.80
2022-07-28T19:10:32.093Z,0.60
2022-07-28T19:12:58.779Z,1.08
2022-07-28T19:15:25.463Z,1.23
2022-07-28T19:18:09.637Z,1.05
2022-07-28T19:20:37.359Z,1.00
2022-07-28T19:23:05.518Z,1.23
2022-07-28T19:25:32.592Z,0.93
2022-07-28T19:27:59.196Z,0.82
2022-07-28T19:30:25.821Z,0.85
2022-07-28T19:32:52.512Z,0.85
2022-07-28T19:35:19.142Z,0.73
2022-07-28T19:37:45.767Z,1.05
2022-07-28T19:40:13.286Z,1.13
2022-07-28T19:42:40.004Z,1.00
2022-07-28T19:45:07.401Z,0.95
2022-07-28T19:47:36.657Z,1.02
2022-07-28T19:50:05.143Z,1.05
2022-07-28T19:52:31.943Z,1.15
2022-07-28T19:54:58.579Z,1.27
2022-07-28T19:57:26.740Z,1.13
2022-07-28T19:59:53.352Z,0.80
2022-07-28T20:02:19.988Z,1.00
2022-07-28T20:04:46.662Z,0.95
2022-07-28T20:07:13.354Z,1.05
2022-07-28T20:09:39.974Z,0.80
2022-07-28T20:12:07.868Z,1.08
2022-07-28T20:14:36.395Z,1.10
2022-07-28T20:17:03.267Z,0.95
2022-07-28T20:19:30.141Z,1.60
2022-07-28T20:21:57.191Z,1.13
2022-07-28T20:24:24.089Z,0.93
2022-07-28T20:26:50.808Z,0.90
2022-07-28T20:29:17.479Z,1.17
2022-07-28T20:31:44.079Z,0.90
2022-07-28T20:34:12.997Z,0.90
2022-07-28T20:36:40.071Z,1.38
2022-07-28T20:39:27.489Z,1.23
2022-07-28T20:41:53.342Z,1.10
2022-07-28T20:44:29.070Z,1.05
2022-07-28T20:46:58.771Z,1.00
2022-07-28T20:49:26.422Z,1.10
2022-07-28T20:51:53.043Z,1.20
2022-07-28T20:54:20.861Z,1.08
2022-07-28T20:56:47.540Z,1.13
2022-07-28T20:59:14.534Z,1.33
2022-07-28T21:01:41.296Z,1.10
2022-07-28T21:04:11.352Z,1.48
2022-07-28T21:06:39.650Z,1.10
2022-07-28T21:09:18.220Z,1.30
2022-07-28T21:11:44.858Z,1.10
2022-07-28T21:14:11.565Z,1.45
2022-07-28T21:16:38.373Z,1.50
2022-07-28T21:19:05.685Z,1.00
2022-07-28T21:21:32.337Z,1.02
2022-07-28T21:23:58.918Z,1.10
2022-07-28T21:26:25.575Z,1.60
2022-07-28T21:29:10.732Z,1.00
2022-07-28T21:32:03.531Z,1.05
2022-07-28T21:34:26.816Z,1.35
2022-07-28T21:36:53.485Z,1.40
2022-07-28T21:39:20.046Z,1.25
2022-07-28T21:41:46.726Z,1.20
2022-07-28T21:44:13.894Z,1.42
2022-07-28T21:46:43.942Z,1.63
2022-07-28T21:49:10.842Z,1.55
2022-07-28T21:51:37.742Z,1.60
2022-07-28T21:54:04.686Z,1.70
2022-07-28T21:56:34.208Z,1.35
2022-07-28T21:59:02.281Z,1.50
2022-07-28T22:01:29.084Z,1.50
2022-07-28T22:03:56.196Z,1.55
2022-07-28T22:06:22.905Z,1.55
2022-07-28T22:08:53.398Z,1.70
2022-07-28T22:11:21.655Z,1.60
2022-07-28T22:13:48.598Z,1.70
2022-07-28T22:16:15.418Z,1.60
2022-07-28T22:18:42.150Z,1.67
2022-07-28T22:21:08.797Z,1.50
2022-07-28T22:23:35.469Z,1.75
2022-07-28T22:26:02.314Z,1.60
2022-07-28T22:28:30.669Z,1.40
2022-07-28T22:30:58.853Z,1.83
2022-07-28T22:33:36.131Z,1.83
2022-07-28T22:36:04.434Z,1.75
2022-07-28T22:38:31.372Z,1.60
2022-07-28T22:40:58.545Z,1.80
2022-07-28T22:43:25.130Z,1.58
2022-07-28T22:45:51.971Z,2.10
2022-07-28T22:48:19.108Z,1.40
2022-07-28T22:50:45.733Z,1.70
2022-07-28T22:53:12.424Z,1.65
2022-07-28T22:55:40.023Z,2.05
2022-07-28T22:58:06.845Z,1.70
2022-07-28T23:00:33.754Z,1.80
2022-07-28T23:03:04.191Z,2.00
2022-07-28T23:05:30.969Z,1.92
2022-07-28T23:07:58.813Z,1.85
2022-07-28T23:10:26.174Z,2.03
2022-07-28T23:12:54.220Z,1.80
2022-07-28T23:15:22.717Z,1.90
2022-07-28T23:17:50.560Z,1.80
2022-07-28T23:20:17.207Z,1.80
2022-07-28T23:22:43.826Z,1.98
2022-07-28T23:25:12.806Z,2.03
2022-07-28T23:27:39.483Z,1.63
2022-07-28T23:30:06.776Z,1.88
2022-07-28T23:32:33.469Z,2.10
2022-07-28T23:35:00.196Z,2.08
2022-07-28T23:37:26.941Z,2.25
2022-07-28T23:39:53.552Z,1.70
2022-07-28T23:42:20.399Z,2.08
2022-07-28T23:44:47.165Z,1.85
2022-07-28T23:47:13.966Z,1.90
2022-07-28T23:49:40.642Z,1.85
2022-07-28T23:52:07.235Z,1.88
2022-07-28T23:54:33.915Z,1.98
2022-07-28T23:57:00.558Z,2.20
2022-07-28T23:59:27.245Z,1.73
